createdAt,value
2022-10-23T00:00:49.380Z,11.90
2022-10-23T00:03:21.360Z,11.90
2022-10-23T00:05:53.391Z,11.80
2022-10-23T00:08:25.420Z,11.80
2022-10-23T00:10:57.541Z,11.80
2022-10-23T00:13:29.683Z,11.80
2022-10-23T00:16:01.856Z,11.80
2022-10-23T00:18:34.359Z,11.70
2022-10-23T00:21:09.604Z,11.70
2022-10-23T00:23:44.800Z,11.60
2022-10-23T00:26:17.573Z,11.60
2022-10-23T00:28:51.985Z,11.60
2022-10-23T00:31:25.625Z,11.60
2022-10-23T00:33:57.688Z,11.50
2022-10-23T00:36:30.304Z,11.50
2022-10-23T00:39:02.472Z,11.50
2022-10-23T00:41:35.215Z,11.50
2022-10-23T00:44:30.097Z,11.40
2022-10-23T00:47:22.257Z,11.40
2022-10-23T00:49:54.334Z,11.40
2022-10-23T00:52:26.468Z,11.30
2022-10-23T00:54:59.033Z,11.30
2022-10-23T00:57:31.282Z,11.30
2022-10-23T01:00:04.945Z,11.20
2022-10-23T01:02:37.585Z,11.20
2022-10-23T01:05:10.439Z,11.20
2022-10-23T01:08:18.634Z,11.20
2022-10-23T01:11:12.606Z,11.10
2022-10-23T01:13:57.000Z,11.10
2022-10-23T01:17:06.067Z,11.10
2022-10-23T01:20:13.388Z,11.10
2022-10-23T01:22:57.573Z,11.10
2022-10-23T01:26:04.835Z,11.10
2022-10-23T01:29:10.219Z,11.10
2022-10-23T01:32:13.228Z,11.00
2022-10-23T01:35:13.627Z,11.00
2022-10-23T01:38:03.594Z,11.00
2022-10-23T01:41:07.394Z,11.00
2022-10-23T01:43:49.754Z,11.00
2022-10-23T01:46:28.091Z,11.00
2022-10-23T01:49:02.520Z,11.00
2022-10-23T01:51:38.557Z,11.00
2022-10-23T01:54:15.593Z,10.90
2022-10-23T01:56:51.312Z,10.90
2022-10-23T01:59:29.643Z,10.90
2022-10-23T02:02:07.763Z,10.90
2022-10-23T02:05:07.421Z,11.00
2022-10-23T02:07:45.490Z,10.90
2022-10-23T02:10:19.640Z,10.90
2022-10-23T02:13:05.626Z,11.00
2022-10-23T02:16:20.860Z,11.00
2022-10-23T02:19:17.097Z,11.00
2022-10-23T02:22:27.113Z,10.90
2022-10-23T02:25:16.440Z,10.90
2022-10-23T02:27:56.315Z,10.90
2022-10-23T02:30:32.803Z,10.80
2022-10-23T02:33:08.115Z,10.80
2022-10-23T02:35:41.161Z,10.80
2022-10-23T02:38:31.751Z,10.80
2022-10-23T02:41:13.721Z,10.80
2022-10-23T02:44:52.743Z,10.80
2022-10-23T02:47:59.611Z,10.80
2022-10-23T02:50:54.444Z,10.80
2022-10-23T02:53:59.667Z,10.80
2022-10-23T02:57:20.292Z,10.80
2022-10-23T03:00:05.853Z,10.80
2022-10-23T03:02:46.164Z,10.80
2022-10-23T03:05:34.639Z,10.80
2022-10-23T03:08:10.674Z,10.80
2022-10-23T03:10:44.323Z,10.80
2022-10-23T03:13:16.445Z,10.80
2022-10-23T03:15:48.448Z,10.90
2022-10-23T03:18:20.411Z,10.90
2022-10-23T03:20:52.364Z,10.90
2022-10-23T03:23:24.313Z,10.90
2022-10-23T03:25:56.509Z,10.90
2022-10-23T03:28:28.460Z,10.90
2022-10-23T03:31:02.204Z,10.90
2022-10-23T03:33:34.443Z,10.90
2022-10-23T03:36:06.908Z,10.90
2022-10-23T03:38:39.429Z,10.90
2022-10-23T03:41:11.419Z,10.90
2022-10-23T03:43:43.469Z,10.90
2022-10-23T03:46:15.647Z,10.90
2022-10-23T03:48:47.601Z,10.80
2022-10-23T03:51:19.603Z,10.90
2022-10-23T03:53:51.603Z,10.80
2022-10-23T03:56:23.830Z,10.80
2022-10-23T03:58:55.925Z,10.80
2022-10-23T04:01:28.029Z,10.80
2022-10-23T04:03:59.973Z,10.80
2022-10-23T04:06:32.226Z,10.80
2022-10-23T04:09:04.885Z,10.80
2022-10-23T04:11:37.784Z,10.80
2022-10-23T04:14:13.267Z,10.80
2022-10-23T04:16:45.461Z,10.90
2022-10-23T04:19:17.959Z,10.90
2022-10-23T04:21:50.138Z,10.80
2022-10-23T04:24:22.816Z,10.80
2022-10-23T04:26:55.660Z,10.80
2022-10-23T04:29:29.619Z,10.80
2022-10-23T04:32:03.341Z,10.80
2022-10-23T04:34:35.510Z,10.80
2022-10-23T04:37:07.673Z,10.80
2022-10-23T04:39:39.769Z,10.80
2022-10-23T04:42:11.771Z,10.80
2022-10-23T04:44:43.764Z,10.80
2022-10-23T04:47:15.827Z,10.80
2022-10-23T04:49:47.882Z,10.80
2022-10-23T04:52:19.931Z,10.80
2022-10-23T04:54:52.048Z,10.80
2022-10-23T04:57:24.093Z,10.80
2022-10-23T04:59:56.105Z,10.80
2022-10-23T05:02:28.028Z,10.80
2022-10-23T05:05:00.085Z,10.80
2022-10-23T05:07:32.135Z,10.80
2022-10-23T05:10:06.187Z,10.90
2022-10-23T05:12:38.587Z,10.90
2022-10-23T05:15:10.960Z,10.90
2022-10-23T05:17:45.991Z,10.90
2022-10-23T05:20:24.409Z,10.90
2022-10-23T05:23:02.396Z,10.90
2022-10-23T05:25:37.578Z,11.00
2022-10-23T05:28:09.686Z,11.00
2022-10-23T05:30:42.680Z,11.10
2022-10-23T05:33:15.114Z,11.10
2022-10-23T05:35:47.223Z,11.10
2022-10-23T05:38:19.590Z,11.10
2022-10-23T05:40:53.087Z,11.10
2022-10-23T05:43:27.256Z,11.10
2022-10-23T05:46:06.245Z,11.20
2022-10-23T05:48:38.279Z,11.20
2022-10-23T05:51:11.611Z,11.20
2022-10-23T05:53:43.607Z,11.20
2022-10-23T05:56:15.860Z,11.20
2022-10-23T05:58:48.435Z,11.20
2022-10-23T06:01:20.597Z,11.10
2022-10-23T06:03:53.849Z,11.10
2022-10-23T06:06:25.953Z,11.10
2022-10-23T06:08:58.182Z,11.10
2022-10-23T06:11:30.360Z,11.10
2022-10-23T06:14:02.530Z,11.10
2022-10-23T06:16:34.652Z,11.10
2022-10-23T06:19:09.416Z,11.20
2022-10-23T06:21:42.575Z,11.20
2022-10-23T06:24:14.766Z,11.30
2022-10-23T06:26:46.742Z,11.40
2022-10-23T06:29:18.793Z,11.40
2022-10-23T06:31:50.874Z,11.40
2022-10-23T06:34:22.969Z,11.40
2022-10-23T06:36:55.043Z,11.50
2022-10-23T06:39:29.808Z,11.60
2022-10-23T06:42:04.269Z,11.60
2022-10-23T06:44:36.565Z,11.60
2022-10-23T06:47:10.838Z,11.70
2022-10-23T06:49:44.890Z,11.80
2022-10-23T06:52:41.700Z,11.80
2022-10-23T06:55:09.718Z,11.90
2022-10-23T06:57:42.814Z,11.90
2022-10-23T07:00:15.517Z,12.00
2022-10-23T07:02:47.847Z,12.00
2022-10-23T07:05:21.151Z,12.10
2022-10-23T07:07:53.131Z,12.10
2022-10-23T07:10:25.460Z,12.20
2022-10-23T07:13:01.077Z,12.20
2022-10-23T07:15:33.981Z,12.30
2022-10-23T07:18:06.623Z,12.40
2022-10-23T07:20:46.962Z,12.40
2022-10-23T07:23:28.226Z,12.50
2022-10-23T07:26:11.727Z,12.50
2022-10-23T07:28:48.075Z,12.60
2022-10-23T07:31:27.202Z,12.70
2022-10-23T07:34:00.320Z,12.70
2022-10-23T07:36:35.639Z,12.80
2022-10-23T07:39:07.806Z,12.90
2022-10-23T07:41:39.940Z,13.00
2022-10-23T07:44:11.996Z,13.10
2022-10-23T07:46:44.064Z,13.10
2022-10-23T07:49:16.082Z,13.10
2022-10-23T07:51:51.242Z,13.20
2022-10-23T07:54:24.865Z,13.20
2022-10-23T07:56:56.973Z,13.30
2022-10-23T07:59:33.439Z,13.40
2022-10-23T08:02:14.098Z,13.40
2022-10-23T08:04:49.799Z,13.50
2022-10-23T08:07:21.964Z,13.60
2022-10-23T08:09:53.865Z,13.70
2022-10-23T08:12:25.869Z,13.80
2022-10-23T08:14:57.836Z,14.00
2022-10-23T08:17:29.952Z,14.20
2022-10-23T08:20:02.345Z,14.50
2022-10-23T08:22:36.933Z,14.70
2022-10-23T08:25:10.949Z,15.00
2022-10-23T08:27:43.231Z,15.40
2022-10-23T08:30:15.654Z,15.60
2022-10-23T08:32:48.053Z,15.70
2022-10-23T08:35:20.627Z,15.60
2022-10-23T08:37:52.817Z,15.60
2022-10-23T08:40:25.718Z,15.40
2022-10-23T08:43:00.272Z,15.30
2022-10-23T08:45:55.404Z,15.20
2022-10-23T08:48:54.100Z,15.10
2022-10-23T08:51:51.915Z,15.10
2022-10-23T08:54:55.644Z,15.10
2022-10-23T08:58:34.997Z,15.10
2022-10-23T09:01:18.795Z,15.20
2022-10-23T09:04:06.895Z,15.30
2022-10-23T09:07:00.715Z,15.40
2022-10-23T09:09:55.779Z,15.50
2022-10-23T09:12:39.950Z,15.70
2022-10-23T09:15:22.163Z,15.80
2022-10-23T09:18:15.716Z,15.90
2022-10-23T09:20:48.676Z,16.00
2022-10-23T09:23:24.979Z,16.20
2022-10-23T09:25:57.668Z,16.30
2022-10-23T09:28:33.039Z,16.50
2022-10-23T09:31:19.350Z,16.50
2022-10-23T09:34:00.939Z,16.70
2022-10-23T09:36:33.464Z,16.80
2022-10-23T09:39:05.632Z,16.90
2022-10-23T09:41:56.291Z,17.00
2022-10-23T09:44:33.517Z,17.10
2022-10-23T09:47:17.918Z,17.10
2022-10-23T09:49:56.441Z,17.30
2022-10-23T09:52:37.475Z,17.40
2022-10-23T09:55:23.269Z,17.40
2022-10-23T09:57:56.882Z,17.50
2022-10-23T10:00:29.626Z,17.70
2022-10-23T10:03:07.135Z,17.80
2022-10-23T10:05:57.659Z,17.90
2022-10-23T10:08:32.931Z,18.00
2022-10-23T10:11:32.575Z,18.20
2022-10-23T10:14:16.715Z,18.20
2022-10-23T10:17:19.075Z,18.40
2022-10-23T10:20:14.010Z,18.50
2022-10-23T10:23:27.091Z,18.60
2022-10-23T10:26:21.277Z,18.70
2022-10-23T10:29:30.038Z,18.70
2022-10-23T10:32:41.746Z,18.80
2022-10-23T10:35:24.066Z,18.90
2022-10-23T10:38:19.785Z,19.00
2022-10-23T10:41:25.281Z,19.20
2022-10-23T10:44:34.013Z,19.40
2022-10-23T10:47:25.789Z,19.50
2022-10-23T10:50:28.721Z,19.60
2022-10-23T10:53:50.824Z,19.70
2022-10-23T10:56:45.893Z,19.80
2022-10-23T10:59:30.590Z,19.80
2022-10-23T11:02:28.300Z,19.80
2022-10-23T11:05:17.181Z,19.80
2022-10-23T11:08:12.080Z,19.80
2022-10-23T11:10:56.915Z,19.80
2022-10-23T11:13:38.248Z,19.90
2022-10-23T11:16:16.017Z,19.90
2022-10-23T11:19:15.218Z,19.90
2022-10-23T11:22:21.249Z,19.90
2022-10-23T11:25:19.585Z,19.90
2022-10-23T11:28:36.975Z,19.90
2022-10-23T11:32:11.048Z,19.90
2022-10-23T11:35:14.349Z,19.90
2022-10-23T11:38:19.221Z,19.90
2022-10-23T11:41:03.853Z,19.90
2022-10-23T11:43:52.657Z,19.80
2022-10-23T11:46:31.362Z,19.80
2022-10-23T11:49:19.852Z,19.80
2022-10-23T11:52:06.057Z,19.80
2022-10-23T11:55:05.801Z,19.80
2022-10-23T11:58:13.611Z,19.80
2022-10-23T12:01:19.556Z,19.80
2022-10-23T12:04:14.657Z,19.80
2022-10-23T12:06:57.203Z,19.90
2022-10-23T12:09:57.567Z,19.90
2022-10-23T12:12:42.783Z,20.00
2022-10-23T12:15:28.167Z,20.10
2022-10-23T12:18:18.377Z,20.20
2022-10-23T12:21:01.900Z,20.30
2022-10-23T12:23:48.503Z,20.30
2022-10-23T12:27:03.931Z,20.40
2022-10-23T12:30:23.954Z,20.40
2022-10-23T12:33:17.566Z,20.50
2022-10-23T12:36:12.632Z,20.60
2022-10-23T12:38:58.834Z,20.60
2022-10-23T12:41:34.795Z,20.60
2022-10-23T12:44:12.536Z,20.70
2022-10-23T12:50:52.396Z,21.00
2022-10-23T12:53:26.048Z,21.10
2022-10-23T12:58:35.804Z,21.40
2022-10-23T13:01:28.527Z,21.60
2022-10-23T13:04:24.764Z,21.90
2022-10-23T13:07:03.896Z,22.10
2022-10-23T13:09:40.244Z,22.30
2022-10-23T13:12:22.461Z,22.50
2022-10-23T13:15:00.386Z,22.70
2022-10-23T13:17:58.352Z,22.90
2022-10-23T13:20:39.428Z,23.10
2022-10-23T13:23:27.978Z,23.00
2022-10-23T13:26:07.298Z,22.90
2022-10-23T13:29:00.832Z,22.90
2022-10-23T13:31:35.023Z,22.90
2022-10-23T13:34:22.159Z,23.00
2022-10-23T13:37:23.931Z,23.10
2022-10-23T13:40:09.710Z,23.10
2022-10-23T13:42:58.928Z,23.00
2022-10-23T13:45:35.396Z,22.90
2022-10-23T13:48:15.254Z,22.70
2022-10-23T13:50:47.649Z,22.60
2022-10-23T13:53:20.211Z,22.50
2022-10-23T13:55:56.266Z,22.40
2022-10-23T13:58:30.878Z,22.30
2022-10-23T14:01:03.315Z,22.20
2022-10-23T14:03:36.897Z,22.10
2022-10-23T14:06:09.199Z,21.90
2022-10-23T14:08:42.027Z,21.80
2022-10-23T14:11:16.117Z,21.70
2022-10-23T14:13:50.523Z,21.60
2022-10-23T14:16:24.560Z,21.40
2022-10-23T14:18:58.262Z,21.30
2022-10-23T14:21:31.154Z,21.10
2022-10-23T14:24:03.924Z,21.00
2022-10-23T14:26:36.437Z,20.90
2022-10-23T14:29:10.298Z,20.80
2022-10-23T14:31:48.609Z,20.80
2022-10-23T14:34:21.336Z,20.80
2022-10-23T14:37:07.294Z,20.70
2022-10-23T14:39:40.525Z,20.60
2022-10-23T14:42:13.631Z,20.50
2022-10-23T14:44:46.282Z,20.40
2022-10-23T14:47:21.038Z,20.30
2022-10-23T14:49:54.780Z,20.30
2022-10-23T14:52:27.617Z,20.30
2022-10-23T14:55:01.610Z,20.30
2022-10-23T14:57:34.264Z,20.20
2022-10-23T15:00:07.840Z,20.20
2022-10-23T15:02:41.312Z,20.10
2022-10-23T15:05:13.612Z,20.10
2022-10-23T15:07:46.430Z,20.10
2022-10-23T15:14:30.105Z,20.00
2022-10-23T15:17:02.965Z,19.90
2022-10-23T15:19:35.407Z,19.90
2022-10-23T15:22:07.695Z,19.90
2022-10-23T15:24:39.942Z,19.80
2022-10-23T15:27:12.316Z,19.70
2022-10-23T15:29:48.112Z,19.70
2022-10-23T15:32:20.243Z,19.70
2022-10-23T15:34:54.079Z,19.70
2022-10-23T15:37:27.755Z,19.70
2022-10-23T15:40:02.267Z,19.70
2022-10-23T15:42:35.534Z,19.70
2022-10-23T15:45:10.168Z,19.70
2022-10-23T15:47:44.476Z,19.70
2022-10-23T15:50:17.809Z,19.60
2022-10-23T15:52:50.824Z,19.70
2022-10-23T15:55:27.424Z,19.60
2022-10-23T15:58:04.503Z,19.60
2022-10-23T16:00:38.839Z,19.50
2022-10-23T16:03:14.798Z,19.50
2022-10-23T16:05:47.997Z,19.50
2022-10-23T16:12:25.997Z,19.30
2022-10-23T16:14:58.455Z,19.30
2022-10-23T16:17:30.575Z,19.20
2022-10-23T16:20:02.849Z,19.10
2022-10-23T16:22:35.140Z,19.00
2022-10-23T16:25:07.451Z,18.90
2022-10-23T16:27:40.102Z,18.90
2022-10-23T16:30:14.397Z,18.80
2022-10-23T16:32:47.260Z,18.80
2022-10-23T16:35:19.399Z,18.70
2022-10-23T16:37:52.408Z,18.60
2022-10-23T16:40:24.773Z,18.60
2022-10-23T16:42:58.632Z,18.50
2022-10-23T16:45:34.413Z,18.50
2022-10-23T16:48:16.489Z,18.40
2022-10-23T16:50:50.469Z,18.40
2022-10-23T16:53:29.436Z,18.40
2022-10-23T16:56:07.656Z,18.30
2022-10-23T16:58:43.670Z,18.30
2022-10-23T17:01:19.227Z,18.30
2022-10-23T17:03:56.369Z,18.20
2022-10-23T17:06:32.003Z,18.20
2022-10-23T17:09:05.738Z,18.20
2022-10-23T17:11:40.724Z,18.10
2022-10-23T17:15:11.322Z,18.10
2022-10-23T17:17:43.847Z,18.10
2022-10-23T17:20:17.145Z,18.10
2022-10-23T17:22:49.885Z,18.10
2022-10-23T17:25:22.762Z,18.00
2022-10-23T17:27:55.643Z,18.00
2022-10-23T17:30:27.856Z,18.00
2022-10-23T17:33:25.191Z,18.00
2022-10-23T17:36:02.745Z,18.00
2022-10-23T17:59:39.166Z,18.20
2022-10-23T18:02:13.130Z,18.20
2022-10-23T18:04:45.617Z,18.10
2022-10-23T18:07:18.013Z,18.10
2022-10-23T18:14:04.768Z,18.00
2022-10-23T18:16:40.396Z,18.00
2022-10-23T18:19:14.493Z,17.90
2022-10-23T18:21:48.532Z,17.90
2022-10-23T18:24:23.448Z,18.10
2022-10-23T18:27:02.463Z,18.10
2022-10-23T18:29:35.081Z,18.20
2022-10-23T18:32:10.134Z,18.30
2022-10-23T18:34:45.330Z,18.30
2022-10-23T18:37:18.096Z,18.40
2022-10-23T18:39:50.584Z,18.50
2022-10-23T18:42:23.048Z,18.50
2022-10-23T18:44:55.553Z,18.60
2022-10-23T18:47:28.041Z,18.60
2022-10-23T18:50:00.504Z,18.60
2022-10-23T18:52:36.131Z,18.60
2022-10-23T18:55:09.678Z,18.50
2022-10-23T18:57:42.790Z,18.50
2022-10-23T19:00:15.702Z,18.50
2022-10-23T19:02:52.167Z,18.40
2022-10-23T19:05:25.579Z,18.50
2022-10-23T19:08:00.994Z,18.50
2022-10-23T19:10:35.288Z,18.40
2022-10-23T19:13:07.548Z,18.40
2022-10-23T19:15:40.353Z,18.30
2022-10-23T19:18:13.491Z,18.30
2022-10-23T19:20:46.876Z,18.20
2022-10-23T19:23:20.379Z,18.20
2022-10-23T19:25:54.968Z,18.20
2022-10-23T19:28:36.692Z,18.10
2022-10-23T19:31:26.322Z,18.10
2022-10-23T19:34:09.492Z,18.10
2022-10-23T19:36:44.715Z,18.00
2022-10-23T19:39:19.482Z,18.00
2022-10-23T19:41:52.850Z,17.90
2022-10-23T19:44:26.437Z,17.90
2022-10-23T19:47:00.288Z,17.80
2022-10-23T19:49:33.437Z,17.80
2022-10-23T19:52:05.838Z,17.80
2022-10-23T19:54:41.133Z,17.70
2022-10-23T19:57:13.388Z,17.70
2022-10-23T19:59:52.814Z,17.60
2022-10-23T20:02:24.900Z,17.60
2022-10-23T20:04:57.234Z,17.60
2022-10-23T20:07:30.853Z,17.50
2022-10-23T20:10:05.961Z,17.50
2022-10-23T20:12:41.770Z,17.40
2022-10-23T20:15:14.156Z,17.40
2022-10-23T20:17:46.490Z,17.40
2022-10-23T20:20:20.395Z,17.40
2022-10-23T20:22:55.579Z,17.30
2022-10-23T20:25:28.246Z,17.30
2022-10-23T20:28:00.510Z,17.30
2022-10-23T20:30:32.936Z,17.30
2022-10-23T20:33:10.524Z,17.30
2022-10-23T20:35:43.703Z,17.40
2022-10-23T20:38:15.939Z,17.40
2022-10-23T20:40:48.500Z,17.50
2022-10-23T20:43:22.233Z,17.50
2022-10-23T20:45:54.437Z,17.60
2022-10-23T20:48:26.549Z,17.60
2022-10-23T20:51:03.235Z,17.70
2022-10-23T20:53:38.525Z,17.80
2022-10-23T20:56:30.311Z,17.80
2022-10-23T20:59:14.259Z,17.90
2022-10-23T21:01:53.329Z,18.00
2022-10-23T21:04:28.672Z,18.10
2022-10-23T21:07:10.417Z,18.20
2022-10-23T21:09:43.255Z,18.20
2022-10-23T21:12:15.510Z,18.30
2022-10-23T21:14:47.770Z,18.40
2022-10-23T21:17:20.662Z,18.50
2022-10-23T21:19:52.937Z,18.60
2022-10-23T21:22:25.407Z,18.60
2022-10-23T21:24:58.934Z,18.60
2022-10-23T21:27:32.387Z,18.70
2022-10-23T21:30:06.282Z,18.70
2022-10-23T21:32:40.411Z,18.70
2022-10-23T21:35:12.544Z,18.80
2022-10-23T21:37:45.116Z,18.80
2022-10-23T21:40:17.491Z,18.80
2022-10-23T21:42:49.941Z,18.80
2022-10-23T21:45:22.274Z,18.80
2022-10-23T21:47:54.477Z,18.80
2022-10-23T21:50:26.594Z,18.80
2022-10-23T21:52:59.845Z,18.90
2022-10-23T21:55:32.236Z,18.80
2022-10-23T21:58:04.459Z,18.90
2022-10-23T22:00:36.523Z,18.90
2022-10-23T22:03:08.736Z,18.90
2022-10-23T22:05:40.793Z,18.90
2022-10-23T22:08:12.884Z,18.90
2022-10-23T22:10:45.068Z,18.90
2022-10-23T22:13:17.159Z,18.90
2022-10-23T22:15:49.286Z,18.80
2022-10-23T22:18:21.355Z,18.80
2022-10-23T22:21:03.863Z,18.80
2022-10-23T22:23:39.708Z,18.80
2022-10-23T22:26:31.979Z,18.70
2022-10-23T22:29:09.828Z,18.80
2022-10-23T22:31:48.803Z,18.70
2022-10-23T22:34:47.959Z,18.70
2022-10-23T22:37:18.070Z,18.70
2022-10-23T22:39:51.961Z,18.60
2022-10-23T22:42:23.922Z,18.60
2022-10-23T22:44:56.065Z,18.60
2022-10-23T22:47:30.228Z,18.60
2022-10-23T22:50:02.281Z,18.60
2022-10-23T22:52:34.681Z,18.50
2022-10-23T22:55:08.193Z,18.50
2022-10-23T22:57:41.040Z,18.50
2022-10-23T23:00:13.588Z,18.50
2022-10-23T23:02:46.226Z,18.40
2022-10-23T23:05:18.422Z,18.40
2022-10-23T23:07:50.492Z,18.40
2022-10-23T23:10:22.874Z,18.30
2022-10-23T23:12:54.989Z,18.40
2022-10-23T23:15:27.981Z,18.40
2022-10-23T23:18:00.062Z,18.40
2022-10-23T23:20:32.196Z,18.40
2022-10-23T23:23:04.816Z,18.30
2022-10-23T23:25:44.317Z,18.30
2022-10-23T23:28:21.024Z,18.30
2022-10-23T23:31:06.540Z,18.30
2022-10-23T23:33:43.970Z,18.30
2022-10-23T23:36:25.449Z,18.30
2022-10-23T23:38:58.824Z,18.20
2022-10-23T23:41:31.245Z,18.20
2022-10-23T23:44:03.424Z,18.10
2022-10-23T23:46:35.588Z,18.10
2022-10-23T23:49:07.629Z,18.10
2022-10-23T23:51:39.780Z,18.00
2022-10-23T23:54:11.840Z,17.90
2022-10-23T23:56:43.961Z,17.90
2022-10-23T23:59:16.229Z,17.90
